createdAt,value
2018-05-26T00:01:50.754Z,20.00
2018-05-26T00:04:17.000Z,19.80
2018-05-26T00:06:43.244Z,19.80
2018-05-26T00:17:50.145Z,19.80
2018-05-26T00:20:16.340Z,19.90
2018-05-26T00:22:49.696Z,19.70
2018-05-26T00:27:30.477Z,19.60
2018-05-26T00:29:56.705Z,19.60
2018-05-26T00:32:22.945Z,19.50
2018-05-26T00:34:50.678Z,19.70
2018-05-26T00:37:16.868Z,19.60
2018-05-26T00:39:43.140Z,19.70
2018-05-26T00:42:10.438Z,19.70
2018-05-26T00:44:36.607Z,19.80
2018-05-26T00:47:03.924Z,19.80
2018-05-26T00:49:31.038Z,19.90
2018-05-26T00:51:57.215Z,19.90
2018-05-26T00:54:23.407Z,19.80
2018-05-26T00:56:50.410Z,19.80
2018-05-26T00:59:17.323Z,19.80
2018-05-26T01:01:43.538Z,19.70
2018-05-26T01:04:10.811Z,19.70
2018-05-26T01:06:36.994Z,19.80
2018-05-26T01:09:04.475Z,19.70
2018-05-26T01:11:31.795Z,19.60
2018-05-26T01:13:58.352Z,19.60
2018-05-26T01:16:24.521Z,19.60
2018-05-26T01:18:51.073Z,19.60
2018-05-26T01:21:18.989Z,19.60
2018-05-26T01:23:45.155Z,19.60
2018-05-26T01:26:11.438Z,19.60
2018-05-26T01:28:37.665Z,19.50
2018-05-26T01:31:03.848Z,19.50
2018-05-26T01:33:31.956Z,19.30
2018-05-26T01:35:58.138Z,19.30
2018-05-26T01:38:24.716Z,19.30
2018-05-26T01:40:51.677Z,19.30
2018-05-26T01:43:17.860Z,19.30
2018-05-26T01:45:44.048Z,19.20
2018-05-26T01:48:10.235Z,19.10
2018-05-26T01:50:37.152Z,19.10
2018-05-26T01:53:03.370Z,19.10
2018-05-26T01:55:29.548Z,19.00
2018-05-26T01:57:56.498Z,19.10
2018-05-26T02:00:23.045Z,19.10
2018-05-26T02:02:49.216Z,19.10
2018-05-26T02:05:15.365Z,19.10
2018-05-26T02:07:41.570Z,19.10
2018-05-26T02:10:07.718Z,19.10
2018-05-26T02:12:35.103Z,19.10
2018-05-26T02:15:01.268Z,19.10
2018-05-26T02:17:27.842Z,19.20
2018-05-26T02:19:55.647Z,19.20
2018-05-26T02:22:21.834Z,19.10
2018-05-26T02:24:48.740Z,19.10
2018-05-26T02:27:14.959Z,19.10
2018-05-26T02:29:41.563Z,19.20
2018-05-26T02:32:08.483Z,19.20
2018-05-26T02:34:34.652Z,19.30
2018-05-26T02:37:01.553Z,19.20
2018-05-26T02:39:27.757Z,19.10
2018-05-26T02:41:53.913Z,19.10
2018-05-26T02:44:20.105Z,19.00
2018-05-26T02:46:46.309Z,18.90
2018-05-26T02:49:12.472Z,18.80
2018-05-26T02:51:38.647Z,18.70
2018-05-26T02:54:07.180Z,18.60
2018-05-26T02:56:33.740Z,18.70
2018-05-26T02:58:59.900Z,18.80
2018-05-26T03:01:28.216Z,18.70
2018-05-26T03:03:54.287Z,18.80
2018-05-26T03:06:27.317Z,18.80
2018-05-26T03:08:59.593Z,18.70
2018-05-26T03:11:31.957Z,18.60
2018-05-26T03:14:04.212Z,18.70
2018-05-26T03:16:32.378Z,18.80
2018-05-26T03:18:59.340Z,18.70
2018-05-26T03:21:25.508Z,18.70
2018-05-26T03:23:51.668Z,18.80
2018-05-26T03:26:18.608Z,18.90
2018-05-26T03:28:45.511Z,18.90
2018-05-26T03:31:11.748Z,18.90
2018-05-26T03:33:38.324Z,18.80
2018-05-26T03:36:04.867Z,18.80
2018-05-26T03:38:31.752Z,18.70
2018-05-26T03:40:57.965Z,18.60
2018-05-26T03:43:24.930Z,18.50
2018-05-26T03:45:51.126Z,18.50
2018-05-26T03:48:18.064Z,18.60
2018-05-26T03:50:44.984Z,18.60
2018-05-26T03:53:11.176Z,18.70
2018-05-26T03:55:49.576Z,18.70
2018-05-26T03:58:28.079Z,18.70
2018-05-26T04:00:54.290Z,18.70
2018-05-26T04:03:21.261Z,18.70
2018-05-26T04:05:47.459Z,18.80
2018-05-26T04:08:14.348Z,18.90
2018-05-26T04:10:40.558Z,18.90
2018-05-26T04:13:06.780Z,18.90
2018-05-26T04:15:33.718Z,18.90
2018-05-26T04:18:00.654Z,18.90
2018-05-26T04:20:27.585Z,19.00
2018-05-26T04:22:55.655Z,19.00
2018-05-26T04:25:21.811Z,19.00
2018-05-26T04:27:48.783Z,19.10
2018-05-26T04:30:15.359Z,19.20
2018-05-26T04:32:41.538Z,19.40
2018-05-26T04:35:07.693Z,19.50
2018-05-26T04:37:33.894Z,19.70
2018-05-26T04:40:00.424Z,19.70
2018-05-26T04:42:26.621Z,19.80
2018-05-26T04:44:53.523Z,19.80
2018-05-26T04:47:19.773Z,19.80
2018-05-26T04:49:46.681Z,19.80
2018-05-26T04:52:12.866Z,19.80
2018-05-26T04:54:39.064Z,19.90
2018-05-26T04:57:05.214Z,20.10
2018-05-26T04:59:31.469Z,20.20
2018-05-26T05:01:58.367Z,20.30
2018-05-26T05:04:24.551Z,20.40
2018-05-26T05:06:50.753Z,20.50
2018-05-26T05:09:18.462Z,20.60
2018-05-26T05:11:44.656Z,20.70
2018-05-26T05:14:13.029Z,20.80
2018-05-26T05:16:39.217Z,20.90
2018-05-26T05:19:05.552Z,21.00
2018-05-26T05:21:31.695Z,21.20
2018-05-26T05:23:57.883Z,21.30
2018-05-26T05:26:24.033Z,21.40
2018-05-26T05:28:51.119Z,21.50
2018-05-26T05:31:17.715Z,21.80
2018-05-26T05:33:43.878Z,21.90
2018-05-26T05:36:10.054Z,22.10
2018-05-26T05:38:36.269Z,22.20
2018-05-26T05:41:02.465Z,22.70
2018-05-26T05:43:28.622Z,22.90
2018-05-26T05:45:55.537Z,23.10
2018-05-26T05:48:21.755Z,23.30
2018-05-26T05:50:47.981Z,23.50
2018-05-26T05:53:14.888Z,23.70
2018-05-26T05:55:41.105Z,23.80
2018-05-26T05:58:07.286Z,23.80
2018-05-26T06:00:33.855Z,23.70
2018-05-26T06:03:00.788Z,23.60
2018-05-26T06:05:27.371Z,23.50
2018-05-26T06:07:53.556Z,23.60
2018-05-26T06:10:20.449Z,23.80
2018-05-26T06:12:46.674Z,24.00
2018-05-26T06:15:12.834Z,24.30
2018-05-26T06:17:39.043Z,24.30
2018-05-26T06:20:05.244Z,24.80
2018-05-26T06:22:31.482Z,25.00
2018-05-26T06:24:57.790Z,25.20
2018-05-26T06:27:24.866Z,25.50
2018-05-26T06:29:51.061Z,25.50
2018-05-26T06:32:18.043Z,25.40
2018-05-26T06:34:44.215Z,25.70
2018-05-26T06:37:11.123Z,25.80
2018-05-26T06:39:37.295Z,24.20
2018-05-26T06:42:04.200Z,25.90
2018-05-26T06:44:30.394Z,25.90
2018-05-26T06:46:56.576Z,25.80
2018-05-26T06:49:23.148Z,25.90
2018-05-26T06:51:50.054Z,25.60
2018-05-26T06:54:16.259Z,25.70
2018-05-26T06:56:42.442Z,26.00
2018-05-26T06:59:09.370Z,26.30
2018-05-26T07:01:35.577Z,26.50
2018-05-26T07:04:02.205Z,26.80
2018-05-26T07:06:28.383Z,27.20
2018-05-26T07:08:55.329Z,27.10
2018-05-26T07:11:22.279Z,27.30
2018-05-26T07:13:49.223Z,27.30
2018-05-26T07:16:16.176Z,27.30
2018-05-26T07:18:43.216Z,27.60
2018-05-26T07:21:10.145Z,27.70
2018-05-26T07:23:36.410Z,27.80
2018-05-26T07:26:02.632Z,27.80
2018-05-26T07:28:28.846Z,28.10
2018-05-26T07:30:55.798Z,28.30
2018-05-26T07:33:22.352Z,28.40
2018-05-26T07:35:48.544Z,28.40
2018-05-26T07:38:14.711Z,28.20
2018-05-26T07:40:40.920Z,28.00
2018-05-26T07:43:07.496Z,28.10
2018-05-26T07:45:34.097Z,28.30
2018-05-26T07:48:00.327Z,28.30
2018-05-26T07:50:26.558Z,28.30
2018-05-26T07:52:52.696Z,28.10
2018-05-26T07:55:18.890Z,28.20
2018-05-26T07:57:45.815Z,28.60
2018-05-26T08:00:12.069Z,28.70
2018-05-26T08:02:38.244Z,28.70
2018-05-26T08:05:04.434Z,28.80
2018-05-26T08:07:31.410Z,29.10
2018-05-26T08:09:58.829Z,29.30
2018-05-26T08:12:25.056Z,29.00
2018-05-26T08:14:52.025Z,29.20
2018-05-26T08:17:18.363Z,29.40
2018-05-26T08:19:44.412Z,29.40
2018-05-26T08:22:11.353Z,29.50
2018-05-26T08:24:37.582Z,29.50
2018-05-26T08:27:03.800Z,29.40
2018-05-26T08:29:30.163Z,29.20
2018-05-26T08:31:56.411Z,29.30
2018-05-26T08:34:22.589Z,29.30
2018-05-26T08:36:48.800Z,29.30
2018-05-26T08:39:16.115Z,29.50
2018-05-26T08:41:42.405Z,29.40
2018-05-26T08:44:08.591Z,29.80
2018-05-26T08:46:36.002Z,29.70
2018-05-26T08:49:02.250Z,29.70
2018-05-26T08:51:28.431Z,29.70
2018-05-26T08:53:54.968Z,29.50
2018-05-26T08:56:21.195Z,29.50
2018-05-26T08:58:48.153Z,29.60
2018-05-26T09:01:14.343Z,29.50
2018-05-26T09:03:40.533Z,29.80
2018-05-26T09:06:07.197Z,29.80
2018-05-26T09:08:33.631Z,30.00
2018-05-26T09:11:00.917Z,30.00
2018-05-26T09:13:27.911Z,30.00
2018-05-26T09:15:54.434Z,30.10
2018-05-26T09:18:20.624Z,30.00
2018-05-26T09:20:47.646Z,30.00
2018-05-26T09:23:14.224Z,29.80
2018-05-26T09:25:40.422Z,29.70
2018-05-26T09:28:06.986Z,29.50
2018-05-26T09:30:33.929Z,29.30
2018-05-26T09:33:00.165Z,29.00
2018-05-26T09:35:26.412Z,29.20
2018-05-26T09:37:52.584Z,29.10
2018-05-26T09:40:18.797Z,29.30
2018-05-26T09:42:45.402Z,29.30
2018-05-26T09:45:11.605Z,29.50
2018-05-26T09:47:45.224Z,29.60
2018-05-26T09:50:11.392Z,29.90
2018-05-26T09:52:37.626Z,29.40
2018-05-26T09:55:04.533Z,30.00
2018-05-26T09:57:30.738Z,30.00
2018-05-26T09:59:58.563Z,30.10
2018-05-26T10:02:25.498Z,30.20
2018-05-26T10:04:52.121Z,30.30
2018-05-26T10:07:18.714Z,30.40
2018-05-26T10:09:45.280Z,30.40
2018-05-26T10:12:11.841Z,30.40
2018-05-26T10:14:38.054Z,30.40
2018-05-26T10:17:04.227Z,30.60
2018-05-26T10:19:32.124Z,30.70
2018-05-26T10:21:59.071Z,30.80
2018-05-26T10:24:26.015Z,30.90
2018-05-26T10:26:53.331Z,31.10
2018-05-26T10:29:19.573Z,31.50
2018-05-26T10:31:45.733Z,31.50
2018-05-26T10:34:11.914Z,31.30
2018-05-26T10:36:39.784Z,31.30
2018-05-26T10:39:05.943Z,31.10
2018-05-26T10:41:33.164Z,30.90
2018-05-26T10:43:59.344Z,30.90
2018-05-26T10:46:25.640Z,30.80
2018-05-26T10:48:52.675Z,30.80
2018-05-26T10:51:18.924Z,30.80
2018-05-26T10:53:45.850Z,31.00
2018-05-26T10:56:12.438Z,30.90
2018-05-26T10:58:38.627Z,30.70
2018-05-26T11:01:05.944Z,30.70
2018-05-26T11:03:32.413Z,30.80
2018-05-26T11:05:58.755Z,30.80
2018-05-26T11:08:25.946Z,30.80
2018-05-26T11:10:52.362Z,30.90
2018-05-26T11:13:18.786Z,31.00
2018-05-26T11:15:45.745Z,31.30
2018-05-26T11:18:11.965Z,31.30
2018-05-26T11:20:41.612Z,31.20
2018-05-26T11:23:07.794Z,31.20
2018-05-26T11:25:34.868Z,31.30
2018-05-26T11:28:01.682Z,31.50
2018-05-26T11:30:28.627Z,31.30
2018-05-26T11:32:54.765Z,31.10
2018-05-26T11:35:21.758Z,30.70
2018-05-26T11:37:47.947Z,30.80
2018-05-26T11:40:14.112Z,30.80
2018-05-26T11:42:40.333Z,30.50
2018-05-26T11:45:06.492Z,30.60
2018-05-26T11:47:32.958Z,30.60
2018-05-26T11:49:59.869Z,30.70
2018-05-26T11:52:26.583Z,30.80
2018-05-26T11:54:52.753Z,30.90
2018-05-26T11:57:19.200Z,30.60
2018-05-26T11:59:46.177Z,30.50
2018-05-26T12:02:12.395Z,30.70
2018-05-26T12:04:38.628Z,30.80
2018-05-26T12:07:04.808Z,30.70
2018-05-26T12:09:31.115Z,30.50
2018-05-26T12:11:57.296Z,30.40
2018-05-26T12:14:24.230Z,30.20
2018-05-26T12:16:51.156Z,30.20
2018-05-26T12:24:13.284Z,30.50
2018-05-26T12:26:39.460Z,30.60
2018-05-26T12:29:05.678Z,30.40
2018-05-26T12:31:31.848Z,30.50
2018-05-26T12:33:58.102Z,30.50
2018-05-26T12:36:24.261Z,30.40
2018-05-26T12:38:50.479Z,30.40
2018-05-26T12:41:16.624Z,30.20
2018-05-26T12:43:42.831Z,30.50
2018-05-26T12:46:09.121Z,30.50
2018-05-26T12:48:35.284Z,30.50
2018-05-26T12:51:05.392Z,30.40
2018-05-26T12:53:32.314Z,30.30
2018-05-26T12:56:02.045Z,30.40
2018-05-26T12:58:28.308Z,30.10
2018-05-26T13:00:56.698Z,29.80
2018-05-26T13:03:23.715Z,29.50
2018-05-26T13:05:49.939Z,29.60
2018-05-26T13:08:16.140Z,29.90
2018-05-26T13:10:42.405Z,30.10
2018-05-26T13:13:09.065Z,29.70
2018-05-26T13:15:35.250Z,29.70
2018-05-26T13:18:01.482Z,29.60
2018-05-26T13:20:27.722Z,29.30
2018-05-26T13:22:53.938Z,29.60
2018-05-26T13:25:20.193Z,29.40
2018-05-26T13:27:47.415Z,29.40
2018-05-26T13:30:13.640Z,29.60
2018-05-26T13:32:39.860Z,29.70
2018-05-26T13:35:06.048Z,29.70
2018-05-26T13:37:33.103Z,29.60
2018-05-26T13:39:59.278Z,29.30
2018-05-26T13:42:25.509Z,29.00
2018-05-26T13:44:51.785Z,29.00
2018-05-26T13:47:18.762Z,29.00
2018-05-26T13:49:46.590Z,29.10
2018-05-26T13:52:13.178Z,29.10
2018-05-26T13:54:39.369Z,29.10
2018-05-26T13:57:05.514Z,29.50
2018-05-26T13:59:32.467Z,29.50
2018-05-26T14:02:00.703Z,29.50
2018-05-26T14:04:26.882Z,29.40
2018-05-26T14:06:53.078Z,29.50
2018-05-26T14:09:19.251Z,29.40
2018-05-26T14:11:45.460Z,29.10
2018-05-26T14:14:12.449Z,29.00
2018-05-26T14:16:38.974Z,29.00
2018-05-26T14:19:05.175Z,28.80
2018-05-26T14:21:31.404Z,28.90
2018-05-26T14:23:57.610Z,29.00
2018-05-26T14:26:24.552Z,29.10
2018-05-26T14:28:50.765Z,29.20
2018-05-26T14:31:16.941Z,29.20
2018-05-26T14:33:43.190Z,28.90
2018-05-26T14:36:09.430Z,28.80
2018-05-26T14:38:37.073Z,28.70
2018-05-26T14:41:03.325Z,28.70
2018-05-26T14:43:29.520Z,28.70
2018-05-26T14:45:55.757Z,28.60
2018-05-26T14:48:21.929Z,28.60
2018-05-26T14:50:48.541Z,28.50
2018-05-26T14:53:14.743Z,28.60
2018-05-26T14:55:40.984Z,28.10
2018-05-26T14:58:07.184Z,28.10
2018-05-26T15:00:34.085Z,28.10
2018-05-26T15:03:00.251Z,28.20
2018-05-26T15:05:27.237Z,28.30
2018-05-26T15:07:53.414Z,28.20
2018-05-26T15:10:20.390Z,28.20
2018-05-26T15:12:46.652Z,28.30
2018-05-26T15:15:13.539Z,28.20
2018-05-26T15:17:40.484Z,28.00
2018-05-26T15:20:07.396Z,28.00
2018-05-26T15:22:33.598Z,27.90
2018-05-26T15:24:59.812Z,27.80
2018-05-26T15:27:26.081Z,27.50
2018-05-26T15:29:52.294Z,27.30
2018-05-26T15:32:18.451Z,27.30
2018-05-26T15:34:44.662Z,27.40
2018-05-26T15:37:11.270Z,27.50
2018-05-26T15:39:37.475Z,27.60
2018-05-26T15:42:04.450Z,27.60
2018-05-26T15:44:30.653Z,27.60
2018-05-26T15:46:57.642Z,27.60
2018-05-26T15:49:23.855Z,27.60
2018-05-26T15:51:50.064Z,27.50
2018-05-26T15:54:16.973Z,27.50
2018-05-26T15:56:43.181Z,27.50
2018-05-26T15:59:09.356Z,27.60
2018-05-26T16:01:36.303Z,27.40
2018-05-26T16:04:03.228Z,27.30
2018-05-26T16:08:58.064Z,27.20
2018-05-26T16:11:24.961Z,27.20
2018-05-26T16:13:51.156Z,27.10
2018-05-26T16:16:19.046Z,27.10
2018-05-26T16:18:45.281Z,27.10
2018-05-26T16:21:11.407Z,27.00
2018-05-26T16:23:37.611Z,27.10
2018-05-26T16:26:03.813Z,27.10
2018-05-26T16:28:30.910Z,27.10
2018-05-26T16:30:57.085Z,27.30
2018-05-26T16:33:24.053Z,27.10
2018-05-26T16:35:50.249Z,27.10
2018-05-26T16:38:16.464Z,27.00
2018-05-26T16:40:42.699Z,26.90
2018-05-26T16:43:08.901Z,26.90
2018-05-26T16:45:35.089Z,27.00
2018-05-26T16:48:02.052Z,27.00
2018-05-26T16:50:28.297Z,27.00
2018-05-26T16:52:54.496Z,27.10
2018-05-26T16:55:21.472Z,27.00
2018-05-26T16:57:47.672Z,26.90
2018-05-26T17:00:13.895Z,26.90
2018-05-26T17:02:40.777Z,26.80
2018-05-26T17:05:07.461Z,26.90
2018-05-26T17:07:33.631Z,26.90
2018-05-26T17:09:59.808Z,26.70
2018-05-26T17:12:26.001Z,26.50
2018-05-26T17:14:52.212Z,26.50
2018-05-26T17:17:18.450Z,26.70
2018-05-26T17:19:44.619Z,26.70
2018-05-26T17:22:10.807Z,26.70
2018-05-26T17:24:37.043Z,26.70
2018-05-26T17:27:03.295Z,26.80
2018-05-26T17:29:29.495Z,26.80
2018-05-26T17:31:57.435Z,26.70
2018-05-26T17:34:24.462Z,26.50
2018-05-26T17:36:51.427Z,26.60
2018-05-26T17:39:18.352Z,26.60
2018-05-26T17:41:44.596Z,26.60
2018-05-26T17:44:11.517Z,26.60
2018-05-26T17:46:37.770Z,26.50
2018-05-26T17:49:04.731Z,26.60
2018-05-26T17:51:30.980Z,26.50
2018-05-26T17:53:57.228Z,26.50
2018-05-26T17:56:26.017Z,26.50
2018-05-26T17:58:52.214Z,26.50
2018-05-26T18:01:18.426Z,26.50
2018-05-26T18:03:45.409Z,26.50
2018-05-26T18:06:12.411Z,26.50
2018-05-26T18:08:39.719Z,26.40
2018-05-26T18:11:05.929Z,26.30
2018-05-26T18:13:32.149Z,26.30
2018-05-26T18:15:58.356Z,26.20
2018-05-26T18:18:25.359Z,26.20
2018-05-26T18:20:51.605Z,26.20
2018-05-26T18:23:17.805Z,26.20
2018-05-26T18:25:44.014Z,26.20
2018-05-26T18:28:10.202Z,26.10
2018-05-26T18:30:36.429Z,26.10
2018-05-26T18:33:02.656Z,26.00
2018-05-26T18:35:28.833Z,25.90
2018-05-26T18:37:55.071Z,25.90
2018-05-26T18:40:21.303Z,25.90
2018-05-26T18:42:47.532Z,25.90
2018-05-26T18:45:13.728Z,25.90
2018-05-26T18:47:40.738Z,25.80
2018-05-26T18:50:07.013Z,25.80
2018-05-26T18:52:33.251Z,25.80
2018-05-26T18:54:59.444Z,25.80
2018-05-26T18:57:26.414Z,25.70
2018-05-26T18:59:52.985Z,25.70
2018-05-26T19:02:19.564Z,25.60
2018-05-26T19:04:46.518Z,25.50
2018-05-26T19:07:13.529Z,25.50
2018-05-26T19:09:39.786Z,25.40
2018-05-26T19:12:05.969Z,25.30
2018-05-26T19:14:32.210Z,25.20
2018-05-26T19:16:58.790Z,25.20
2018-05-26T19:19:25.868Z,25.00
2018-05-26T19:21:52.821Z,24.90
2018-05-26T19:24:19.037Z,24.90
2018-05-26T19:26:45.237Z,24.80
2018-05-26T19:29:12.206Z,24.80
2018-05-26T19:31:39.655Z,24.80
2018-05-26T19:34:06.632Z,24.70
2018-05-26T19:36:33.955Z,24.60
2018-05-26T19:39:00.936Z,24.60
2018-05-26T19:41:27.109Z,24.60
2018-05-26T19:43:53.363Z,24.50
2018-05-26T19:46:20.323Z,24.50
2018-05-26T19:48:46.542Z,24.50
2018-05-26T19:51:12.735Z,24.50
2018-05-26T19:53:38.952Z,24.50
2018-05-26T19:56:05.188Z,24.40
2018-05-26T19:58:31.409Z,24.40
2018-05-26T20:00:57.627Z,24.40
2018-05-26T20:03:23.827Z,24.40
2018-05-26T20:05:50.942Z,24.30
2018-05-26T20:08:17.929Z,24.30
2018-05-26T20:10:44.556Z,24.20
2018-05-26T20:13:10.779Z,24.20
2018-05-26T20:15:37.017Z,24.20
2018-05-26T20:18:04.693Z,24.00
2018-05-26T20:20:31.707Z,23.90
2018-05-26T20:22:58.644Z,23.90
2018-05-26T20:25:25.615Z,23.80
2018-05-26T20:27:51.880Z,23.70
2018-05-26T20:30:18.127Z,23.60
2018-05-26T20:32:44.403Z,23.60
2018-05-26T20:35:10.657Z,23.50
2018-05-26T20:37:36.916Z,23.40
2018-05-26T20:40:03.161Z,23.40
2018-05-26T20:42:29.419Z,23.30
2018-05-26T20:45:00.784Z,23.30
2018-05-26T20:47:27.046Z,23.30
2018-05-26T20:49:53.335Z,23.40
2018-05-26T20:52:19.621Z,23.30
2018-05-26T20:54:45.882Z,23.20
2018-05-26T20:57:12.868Z,23.30
2018-05-26T20:59:39.173Z,23.20
2018-05-26T21:02:05.416Z,23.30
2018-05-26T21:04:31.997Z,23.20
2018-05-26T21:06:58.285Z,23.20
2018-05-26T21:09:26.513Z,23.20
2018-05-26T21:11:53.507Z,23.20
2018-05-26T21:14:21.782Z,23.10
2018-05-26T21:16:48.726Z,23.20
2018-05-26T21:19:14.965Z,23.30
2018-05-26T21:21:41.261Z,23.40
2018-05-26T21:24:08.264Z,23.40
2018-05-26T21:26:34.493Z,23.40
2018-05-26T21:29:00.760Z,23.40
2018-05-26T21:31:27.725Z,23.40
2018-05-26T21:33:54.004Z,23.30
2018-05-26T21:36:20.282Z,23.40
2018-05-26T21:38:46.493Z,23.30
2018-05-26T21:41:28.741Z,23.20
2018-05-26T21:43:54.931Z,23.20
2018-05-26T21:46:21.853Z,23.10
2018-05-26T21:48:48.484Z,23.10
2018-05-26T21:51:14.695Z,23.10
2018-05-26T21:53:40.974Z,23.10
2018-05-26T21:56:07.944Z,23.10
2018-05-26T21:58:34.986Z,23.10
2018-05-26T22:01:01.217Z,23.10
2018-05-26T22:03:27.997Z,23.00
2018-05-26T22:05:55.068Z,22.90
2018-05-26T22:08:21.281Z,22.80
2018-05-26T22:10:49.110Z,22.60
2018-05-26T22:13:15.355Z,22.50
2018-05-26T22:15:41.665Z,22.50
2018-05-26T22:18:08.175Z,22.40
2018-05-26T22:20:35.157Z,22.40
2018-05-26T22:23:01.397Z,22.40
2018-05-26T22:25:27.639Z,22.40
2018-05-26T22:27:54.221Z,22.40
2018-05-26T22:30:21.166Z,22.30
2018-05-26T22:32:47.416Z,22.30
2018-05-26T22:35:13.606Z,22.30
2018-05-26T22:37:39.812Z,22.30
2018-05-26T22:40:06.027Z,22.30
2018-05-26T22:42:32.237Z,22.20
2018-05-26T22:44:58.471Z,22.20
2018-05-26T22:47:24.674Z,22.20
2018-05-26T22:49:51.617Z,22.20
2018-05-26T22:52:18.575Z,22.20
2018-05-26T22:54:44.809Z,22.10
2018-05-26T22:57:10.968Z,22.10
2018-05-26T22:59:37.155Z,22.00
2018-05-26T23:02:03.417Z,22.00
2018-05-26T23:04:29.683Z,21.90
2018-05-26T23:06:55.891Z,21.90
2018-05-26T23:09:22.073Z,21.90
2018-05-26T23:11:48.297Z,21.90
2018-05-26T23:14:14.469Z,21.90
2018-05-26T23:16:40.660Z,21.80
2018-05-26T23:19:06.857Z,21.80
2018-05-26T23:21:33.100Z,21.80
2018-05-26T23:24:00.051Z,21.70
2018-05-26T23:26:27.015Z,21.60
2018-05-26T23:28:53.248Z,21.60
2018-05-26T23:31:19.434Z,21.60
2018-05-26T23:33:49.920Z,21.70
2018-05-26T23:36:16.107Z,21.60
2018-05-26T23:38:43.094Z,21.70
2018-05-26T23:41:09.314Z,21.70
2018-05-26T23:43:35.501Z,21.80
2018-05-26T23:46:02.494Z,21.90
2018-05-26T23:48:28.828Z,21.80
2018-05-26T23:50:54.989Z,21.90
2018-05-26T23:53:21.156Z,21.90
2018-05-26T23:55:47.396Z,22.00
2018-05-26T23:58:13.584Z,21.90
